createdAt,value
2023-06-28T00:02:16.471Z,22.07
2023-06-28T00:04:43.040Z,21.94
2023-06-28T00:07:10.230Z,21.89
2023-06-28T00:09:36.957Z,21.88
2023-06-28T00:12:04.230Z,21.57
2023-06-28T00:14:30.803Z,21.77
2023-06-28T00:16:57.324Z,21.74
2023-06-28T00:19:27.805Z,21.65
2023-06-28T00:21:58.182Z,21.50
2023-06-28T00:24:24.747Z,21.63
2023-06-28T00:26:51.387Z,21.72
2023-06-28T00:29:17.892Z,21.66
2023-06-28T00:31:44.524Z,21.42
2023-06-28T00:34:11.098Z,21.20
2023-06-28T00:36:37.699Z,21.57
2023-06-28T00:39:04.991Z,21.39
2023-06-28T00:41:31.542Z,21.48
2023-06-28T00:43:58.163Z,21.24
2023-06-28T00:46:24.693Z,21.18
2023-06-28T00:48:51.329Z,21.10
2023-06-28T00:51:18.113Z,21.24
2023-06-28T00:53:44.772Z,20.99
2023-06-28T00:56:11.378Z,21.08
2023-06-28T00:58:37.934Z,20.95
2023-06-28T01:01:04.462Z,21.03
2023-06-28T01:03:31.161Z,21.00
2023-06-28T01:05:59.930Z,20.93
2023-06-28T01:08:27.476Z,20.61
2023-06-28T01:10:54.723Z,20.99
2023-06-28T01:13:21.751Z,20.97
2023-06-28T01:15:48.318Z,21.03
2023-06-28T01:18:17.341Z,20.60
2023-06-28T01:20:44.094Z,20.54
2023-06-28T01:23:10.908Z,20.58
2023-06-28T01:25:37.543Z,20.64
2023-06-28T01:28:04.315Z,20.85
2023-06-28T01:30:31.089Z,20.68
2023-06-28T01:32:57.760Z,20.74
2023-06-28T01:35:24.434Z,20.82
2023-06-28T01:37:51.977Z,20.55
2023-06-28T01:40:18.740Z,20.43
2023-06-28T01:42:45.566Z,20.28
2023-06-28T01:45:12.353Z,20.20
2023-06-28T01:47:39.700Z,20.41
2023-06-28T01:50:07.929Z,20.33
2023-06-28T01:52:34.542Z,20.54
2023-06-28T01:55:01.161Z,20.51
2023-06-28T01:57:27.840Z,20.62
2023-06-28T01:59:56.153Z,20.43
2023-06-28T02:02:23.111Z,20.55
2023-06-28T02:04:49.705Z,20.46
2023-06-28T02:07:16.433Z,20.21
2023-06-28T02:09:43.107Z,20.39
2023-06-28T02:12:09.804Z,20.28
2023-06-28T02:14:36.600Z,20.43
2023-06-28T02:17:03.403Z,20.27
2023-06-28T02:19:34.417Z,20.22
2023-06-28T02:22:01.233Z,20.12
2023-06-28T02:24:27.780Z,20.23
2023-06-28T02:26:54.894Z,20.02
2023-06-28T02:29:21.576Z,20.04
2023-06-28T02:31:48.118Z,19.74
2023-06-28T02:34:14.719Z,20.19
2023-06-28T02:36:41.396Z,20.13
2023-06-28T02:39:07.946Z,20.13
2023-06-28T02:41:34.532Z,20.09
2023-06-28T02:44:01.089Z,19.95
2023-06-28T02:46:27.757Z,20.08
2023-06-28T02:48:54.302Z,19.90
2023-06-28T02:51:20.855Z,20.03
2023-06-28T02:53:47.446Z,20.11
2023-06-28T02:56:16.415Z,20.10
2023-06-28T02:58:43.572Z,19.74
2023-06-28T03:01:11.166Z,19.81
2023-06-28T03:03:38.378Z,19.79
2023-06-28T03:06:06.050Z,19.89
2023-06-28T03:08:32.603Z,20.04
2023-06-28T03:11:00.129Z,20.01
2023-06-28T03:13:26.650Z,19.95
2023-06-28T03:15:53.171Z,20.10
2023-06-28T03:18:19.785Z,20.23
2023-06-28T03:20:46.291Z,19.91
2023-06-28T03:23:12.959Z,20.04
2023-06-28T03:25:39.466Z,19.76
2023-06-28T03:28:06.050Z,19.75
2023-06-28T03:30:32.687Z,20.02
2023-06-28T03:32:59.248Z,20.01
2023-06-28T03:35:25.882Z,20.11
2023-06-28T03:37:53.574Z,20.10
2023-06-28T03:40:20.495Z,20.18
2023-06-28T03:42:48.897Z,20.31
2023-06-28T03:45:16.424Z,20.32
2023-06-28T03:47:43.058Z,20.04
2023-06-28T03:50:09.886Z,20.18
2023-06-28T03:52:37.148Z,20.32
2023-06-28T03:55:04.577Z,20.26
2023-06-28T03:57:31.173Z,20.26
2023-06-28T03:59:57.694Z,20.34
2023-06-28T04:02:24.495Z,20.24
2023-06-28T04:04:51.048Z,20.49
2023-06-28T04:07:17.679Z,20.25
2023-06-28T04:09:44.479Z,20.50
2023-06-28T04:12:11.193Z,20.64
2023-06-28T04:14:38.026Z,20.52
2023-06-28T04:17:04.578Z,20.85
2023-06-28T04:19:31.097Z,20.85
2023-06-28T04:21:58.206Z,20.77
2023-06-28T04:24:25.559Z,20.93
2023-06-28T04:26:52.091Z,20.74
2023-06-28T04:29:19.918Z,20.95
2023-06-28T04:31:48.089Z,21.02
2023-06-28T04:34:15.826Z,21.08
2023-06-28T04:36:42.396Z,21.15
2023-06-28T04:39:08.912Z,21.10
2023-06-28T04:41:35.549Z,20.92
2023-06-28T04:44:02.087Z,21.13
2023-06-28T04:46:28.695Z,21.15
2023-06-28T04:48:56.994Z,21.25
2023-06-28T04:51:23.796Z,21.49
2023-06-28T04:53:50.751Z,21.50
2023-06-28T04:56:17.476Z,21.37
2023-06-28T04:58:44.181Z,21.62
2023-06-28T05:01:10.721Z,21.53
2023-06-28T05:03:40.071Z,21.59
2023-06-28T05:06:10.090Z,21.46
2023-06-28T05:08:36.748Z,21.15
2023-06-28T05:11:03.575Z,21.34
2023-06-28T05:13:30.118Z,21.38
2023-06-28T05:15:56.710Z,21.42
2023-06-28T05:18:23.539Z,21.17
2023-06-28T05:20:50.741Z,21.70
2023-06-28T05:23:18.878Z,21.43
2023-06-28T05:25:46.342Z,20.66
2023-06-28T05:28:14.250Z,21.12
2023-06-28T05:30:42.422Z,21.40
2023-06-28T05:33:10.405Z,21.43
2023-06-28T05:35:37.732Z,21.31
2023-06-28T05:38:05.469Z,21.25
2023-06-28T05:40:33.511Z,21.36
2023-06-28T05:43:00.179Z,21.27
2023-06-28T05:45:27.478Z,21.51
2023-06-28T05:47:54.659Z,21.57
2023-06-28T05:50:24.606Z,21.84
2023-06-28T05:52:51.618Z,21.81
2023-06-28T05:55:18.418Z,21.61
2023-06-28T05:57:46.132Z,22.00
2023-06-28T06:00:13.452Z,21.61
2023-06-28T06:02:41.011Z,21.66
2023-06-28T06:05:08.469Z,21.73
2023-06-28T06:07:37.167Z,21.30
2023-06-28T06:10:04.485Z,21.40
2023-06-28T06:12:31.012Z,22.28
2023-06-28T06:14:58.282Z,22.65
2023-06-28T06:17:25.010Z,22.79
2023-06-28T06:19:51.787Z,23.04
2023-06-28T06:22:18.300Z,23.34
2023-06-28T06:24:44.954Z,23.19
2023-06-28T06:27:11.513Z,23.00
2023-06-28T06:29:38.242Z,22.85
2023-06-28T06:32:05.109Z,23.37
2023-06-28T06:34:31.654Z,23.47
2023-06-28T06:36:58.422Z,23.57
2023-06-28T06:39:25.069Z,23.48
2023-06-28T06:41:51.769Z,24.07
2023-06-28T06:44:18.321Z,24.52
2023-06-28T06:46:45.551Z,24.35
2023-06-28T06:49:12.200Z,24.41
2023-06-28T06:51:38.743Z,25.04
2023-06-28T06:54:05.924Z,24.28
2023-06-28T06:56:32.528Z,24.21
2023-06-28T06:58:59.154Z,24.78
2023-06-28T07:01:25.960Z,24.58
2023-06-28T07:03:53.419Z,24.21
2023-06-28T07:06:19.971Z,24.41
2023-06-28T07:08:47.065Z,25.09
2023-06-28T07:11:13.885Z,24.38
2023-06-28T07:13:40.473Z,24.64
2023-06-28T07:16:07.287Z,24.13
2023-06-28T07:18:34.112Z,24.94
2023-06-28T07:21:00.992Z,23.99
2023-06-28T07:23:27.567Z,24.54
2023-06-28T07:25:54.077Z,24.54
2023-06-28T07:28:20.662Z,24.91
2023-06-28T07:30:55.174Z,25.10
2023-06-28T07:33:23.351Z,24.54
2023-06-28T07:35:50.764Z,23.49
2023-06-28T07:38:19.251Z,24.05
2023-06-28T07:40:49.636Z,23.01
2023-06-28T07:43:17.939Z,23.35
2023-06-28T07:45:44.869Z,23.89
2023-06-28T07:48:12.163Z,24.22
2023-06-28T07:50:41.427Z,24.64
2023-06-28T07:53:07.972Z,24.69
2023-06-28T07:55:34.496Z,24.39
2023-06-28T07:58:01.320Z,25.11
2023-06-28T08:00:28.026Z,24.62
2023-06-28T08:02:54.685Z,24.45
2023-06-28T08:05:21.481Z,24.72
2023-06-28T08:07:48.879Z,24.55
2023-06-28T08:10:15.533Z,25.10
2023-06-28T08:12:42.133Z,24.39
2023-06-28T08:15:09.258Z,24.53
2023-06-28T08:17:35.878Z,23.81
2023-06-28T08:20:02.603Z,23.85
2023-06-28T08:22:29.234Z,24.05
2023-06-28T08:24:56.012Z,24.53
2023-06-28T08:27:22.940Z,24.87
2023-06-28T08:29:49.561Z,24.42
2023-06-28T08:32:16.207Z,24.61
2023-06-28T08:34:43.110Z,26.01
2023-06-28T08:37:09.862Z,24.79
2023-06-28T08:39:41.132Z,26.59
2023-06-28T08:42:08.001Z,28.07
2023-06-28T08:44:34.711Z,28.10
2023-06-28T08:47:01.949Z,26.21
2023-06-28T08:49:32.514Z,26.17
2023-06-28T08:51:59.170Z,26.46
2023-06-28T08:54:29.426Z,27.78
2023-06-28T08:57:11.296Z,27.85
2023-06-28T08:59:39.572Z,26.07
2023-06-28T09:02:08.772Z,27.16
2023-06-28T09:04:35.545Z,26.35
2023-06-28T09:07:02.679Z,27.46
2023-06-28T09:09:29.719Z,26.71
2023-06-28T09:11:56.578Z,25.39
2023-06-28T09:14:23.109Z,24.35
2023-06-28T09:16:49.635Z,25.53
2023-06-28T09:19:16.231Z,24.93
2023-06-28T09:21:43.112Z,25.43
2023-06-28T09:24:13.618Z,26.29
2023-06-28T09:26:44.352Z,26.82
2023-06-28T09:29:16.125Z,26.46
2023-06-28T09:31:46.917Z,25.93
2023-06-28T09:34:13.816Z,25.01
2023-06-28T09:36:41.165Z,26.45
2023-06-28T09:39:10.784Z,25.30
2023-06-28T09:41:38.543Z,26.29
2023-06-28T09:44:06.746Z,26.56
2023-06-28T09:46:33.993Z,27.22
2023-06-28T09:49:00.896Z,28.83
2023-06-28T09:51:28.058Z,28.21
2023-06-28T09:53:55.687Z,28.58
2023-06-28T09:56:29.128Z,26.94
2023-06-28T09:58:56.062Z,26.35
2023-06-28T10:01:24.913Z,26.09
2023-06-28T10:03:52.776Z,25.35
2023-06-28T10:06:20.338Z,24.28
2023-06-28T10:08:47.257Z,24.38
2023-06-28T10:11:15.744Z,24.50
2023-06-28T10:13:43.639Z,25.05
2023-06-28T10:16:19.552Z,25.84
2023-06-28T10:18:46.373Z,27.55
2023-06-28T10:21:13.125Z,29.00
2023-06-28T10:23:40.653Z,30.84
2023-06-28T10:26:07.343Z,32.77
2023-06-28T10:28:35.600Z,32.52
2023-06-28T10:31:05.989Z,31.56
2023-06-28T10:33:33.449Z,30.94
2023-06-28T10:36:03.940Z,31.37
2023-06-28T10:38:38.410Z,28.26
2023-06-28T10:41:06.466Z,27.99
2023-06-28T10:43:33.603Z,27.00
2023-06-28T10:46:00.260Z,28.21
2023-06-28T10:48:30.648Z,28.47
2023-06-28T10:51:02.440Z,29.00
2023-06-28T10:53:29.861Z,30.20
2023-06-28T10:56:10.213Z,30.36
2023-06-28T10:58:44.670Z,30.19
2023-06-28T11:01:13.636Z,30.49
2023-06-28T11:03:44.717Z,31.79
2023-06-28T11:06:15.208Z,34.09
2023-06-28T11:08:46.221Z,35.86
2023-06-28T11:11:23.949Z,32.69
2023-06-28T11:13:50.709Z,31.38
2023-06-28T11:16:19.224Z,31.83
2023-06-28T11:18:47.444Z,29.14
2023-06-28T11:21:24.993Z,28.70
2023-06-28T11:23:56.691Z,30.78
2023-06-28T11:26:35.069Z,31.15
2023-06-28T11:29:02.091Z,31.08
2023-06-28T11:31:34.734Z,31.39
2023-06-28T11:34:01.596Z,30.14
2023-06-28T11:36:29.448Z,30.23
2023-06-28T11:38:56.815Z,29.34
2023-06-28T11:41:23.427Z,27.92
2023-06-28T11:43:50.155Z,28.79
2023-06-28T11:46:21.421Z,29.15
2023-06-28T11:48:49.391Z,29.20
2023-06-28T11:51:16.384Z,27.16
2023-06-28T11:53:48.147Z,28.69
2023-06-28T11:56:14.761Z,28.72
2023-06-28T11:58:41.690Z,29.06
2023-06-28T12:01:20.545Z,28.97
2023-06-28T12:03:47.234Z,28.84
2023-06-28T12:06:14.076Z,28.86
2023-06-28T12:08:41.791Z,28.63
2023-06-28T12:11:10.503Z,27.50
2023-06-28T12:13:37.611Z,27.34
2023-06-28T12:16:15.675Z,27.95
2023-06-28T12:19:00.355Z,28.02
2023-06-28T12:21:29.028Z,28.09
2023-06-28T12:24:13.532Z,28.16
2023-06-28T12:26:40.994Z,28.76
2023-06-28T12:29:08.777Z,29.54
2023-06-28T12:31:43.288Z,29.53
2023-06-28T12:34:10.378Z,29.41
2023-06-28T12:36:40.234Z,29.73
2023-06-28T12:39:08.619Z,29.87
2023-06-28T12:41:35.372Z,28.71
2023-06-28T12:44:02.049Z,29.45
2023-06-28T12:46:31.194Z,29.39
2023-06-28T12:49:04.128Z,28.80
2023-06-28T12:51:30.789Z,26.95
2023-06-28T12:53:57.720Z,28.08
2023-06-28T12:56:24.329Z,26.73
2023-06-28T12:58:50.932Z,28.10
2023-06-28T13:01:17.531Z,27.14
2023-06-28T13:03:44.176Z,28.24
2023-06-28T13:06:10.822Z,27.97
2023-06-28T13:08:37.445Z,27.47
2023-06-28T13:11:04.047Z,28.76
2023-06-28T13:13:31.080Z,27.55
2023-06-28T13:15:57.734Z,27.28
2023-06-28T13:18:24.587Z,29.48
2023-06-28T13:20:51.278Z,28.41
2023-06-28T13:23:17.844Z,26.72
2023-06-28T13:25:44.793Z,26.97
2023-06-28T13:28:11.625Z,26.55
2023-06-28T13:30:38.305Z,27.06
2023-06-28T13:33:04.878Z,26.37
2023-06-28T13:35:31.583Z,26.20
2023-06-28T13:37:58.168Z,26.82
2023-06-28T13:40:25.318Z,27.43
2023-06-28T13:42:51.980Z,26.54
2023-06-28T13:45:18.593Z,27.31
2023-06-28T13:47:45.329Z,27.53
2023-06-28T13:50:12.449Z,27.77
2023-06-28T13:52:39.036Z,26.38
2023-06-28T13:55:06.344Z,26.15
2023-06-28T13:57:33.231Z,26.57
2023-06-28T14:00:00.495Z,26.77
2023-06-28T14:02:27.755Z,26.66
2023-06-28T14:04:54.506Z,25.57
2023-06-28T14:07:21.259Z,26.33
2023-06-28T14:09:47.878Z,25.87
2023-06-28T14:12:14.929Z,26.34
2023-06-28T14:14:42.661Z,27.33
2023-06-28T14:17:09.394Z,27.80
2023-06-28T14:19:36.032Z,27.81
2023-06-28T14:22:02.597Z,25.44
2023-06-28T14:24:29.197Z,26.89
2023-06-28T14:26:55.776Z,26.77
2023-06-28T14:29:22.362Z,27.50
2023-06-28T14:31:48.942Z,27.74
2023-06-28T14:34:15.540Z,27.12
2023-06-28T14:36:42.114Z,27.83
2023-06-28T14:39:08.774Z,28.01
2023-06-28T14:41:35.388Z,28.51
2023-06-28T14:44:01.949Z,28.15
2023-06-28T14:46:28.762Z,27.91
2023-06-28T14:48:59.430Z,27.35
2023-06-28T14:51:26.103Z,26.97
2023-06-28T14:53:52.718Z,26.90
2023-06-28T14:56:19.316Z,26.58
2023-06-28T14:58:45.873Z,26.74
2023-06-28T15:01:12.447Z,27.16
2023-06-28T15:03:39.140Z,26.66
2023-06-28T15:06:06.243Z,26.19
2023-06-28T15:08:33.202Z,26.14
2023-06-28T15:11:00.622Z,26.41
2023-06-28T15:13:27.565Z,25.90
2023-06-28T15:15:54.805Z,27.06
2023-06-28T15:18:21.665Z,26.54
2023-06-28T15:20:48.451Z,26.93
2023-06-28T15:23:15.903Z,26.00
2023-06-28T15:25:43.210Z,27.00
2023-06-28T15:28:11.254Z,27.50
2023-06-28T15:30:37.896Z,26.36
2023-06-28T15:33:04.593Z,26.63
2023-06-28T15:35:31.226Z,27.32
2023-06-28T15:37:57.987Z,26.34
2023-06-28T15:40:25.335Z,26.04
2023-06-28T15:42:51.986Z,26.64
2023-06-28T15:45:20.100Z,28.11
2023-06-28T15:47:46.675Z,27.93
2023-06-28T15:50:13.367Z,28.41
2023-06-28T15:52:40.121Z,28.66
2023-06-28T15:55:07.260Z,28.69
2023-06-28T15:57:33.944Z,28.63
2023-06-28T16:00:00.586Z,28.00
2023-06-28T16:02:27.446Z,28.80
2023-06-28T16:04:54.900Z,29.24
2023-06-28T16:07:21.750Z,27.21
2023-06-28T16:09:48.757Z,27.13
2023-06-28T16:12:15.401Z,27.28
2023-06-28T16:14:41.994Z,28.21
2023-06-28T16:17:08.738Z,27.83
2023-06-28T16:19:35.355Z,27.83
2023-06-28T16:22:01.953Z,27.86
2023-06-28T16:24:28.912Z,27.30
2023-06-28T16:26:55.544Z,27.30
2023-06-28T16:29:23.043Z,27.65
2023-06-28T16:31:49.646Z,27.61
2023-06-28T16:34:16.508Z,28.28
2023-06-28T16:36:43.368Z,28.36
2023-06-28T16:39:10.919Z,27.61
2023-06-28T16:41:37.622Z,26.97
2023-06-28T16:44:04.259Z,27.83
2023-06-28T16:46:30.899Z,27.48
2023-06-28T16:48:57.496Z,27.10
2023-06-28T16:51:24.080Z,26.43
2023-06-28T16:53:50.712Z,26.44
2023-06-28T16:56:17.301Z,26.15
2023-06-28T16:58:43.940Z,26.26
2023-06-28T17:01:10.621Z,26.57
2023-06-28T17:03:42.047Z,26.43
2023-06-28T17:06:09.583Z,26.20
2023-06-28T17:08:36.240Z,25.49
2023-06-28T17:11:04.520Z,25.59
2023-06-28T17:13:31.589Z,25.87
2023-06-28T17:15:59.829Z,26.16
2023-06-28T17:18:26.894Z,25.73
2023-06-28T17:20:54.264Z,25.99
2023-06-28T17:23:22.557Z,26.29
2023-06-28T17:25:49.644Z,25.39
2023-06-28T17:28:16.501Z,26.22
2023-06-28T17:30:43.292Z,26.35
2023-06-28T17:33:10.011Z,26.52
2023-06-28T17:35:36.868Z,26.87
2023-06-28T17:38:03.685Z,26.70
2023-06-28T17:40:30.365Z,26.75
2023-06-28T17:42:56.956Z,26.62
2023-06-28T17:45:23.540Z,26.96
2023-06-28T17:47:50.148Z,26.60
2023-06-28T17:50:16.893Z,27.18
2023-06-28T17:52:43.647Z,26.35
2023-06-28T17:55:10.744Z,26.36
2023-06-28T17:57:37.340Z,26.60
2023-06-28T18:00:05.607Z,27.01
2023-06-28T18:02:32.683Z,27.13
2023-06-28T18:04:59.268Z,27.39
2023-06-28T18:07:25.958Z,26.89
2023-06-28T18:09:52.872Z,26.87
2023-06-28T18:12:19.632Z,26.58
2023-06-28T18:14:46.257Z,26.88
2023-06-28T18:17:13.609Z,26.96
2023-06-28T18:19:43.225Z,25.97
2023-06-28T18:22:10.078Z,26.61
2023-06-28T18:24:36.856Z,26.77
2023-06-28T18:27:03.651Z,27.02
2023-06-28T18:29:30.502Z,26.90
2023-06-28T18:31:57.188Z,27.19
2023-06-28T18:34:23.797Z,27.18
2023-06-28T18:36:50.380Z,27.25
2023-06-28T18:39:20.030Z,27.32
2023-06-28T18:41:46.684Z,26.67
2023-06-28T18:44:13.325Z,26.99
2023-06-28T18:46:40.143Z,26.80
2023-06-28T18:49:08.789Z,26.96
2023-06-28T18:51:37.174Z,27.09
2023-06-28T18:54:05.351Z,26.86
2023-06-28T18:56:32.527Z,27.05
2023-06-28T18:59:00.981Z,26.93
2023-06-28T19:01:27.718Z,27.17
2023-06-28T19:03:54.506Z,27.06
2023-06-28T19:06:21.681Z,26.80
2023-06-28T19:08:48.960Z,26.93
2023-06-28T19:11:15.741Z,26.96
2023-06-28T19:13:42.351Z,27.03
2023-06-28T19:16:09.383Z,26.94
2023-06-28T19:18:36.495Z,26.96
2023-06-28T19:21:03.369Z,27.01
2023-06-28T19:23:30.070Z,26.20
2023-06-28T19:25:56.768Z,26.43
2023-06-28T19:28:23.455Z,26.19
2023-06-28T19:30:50.147Z,26.43
2023-06-28T19:33:16.973Z,26.50
2023-06-28T19:35:44.406Z,26.50
2023-06-28T19:38:12.393Z,26.34
2023-06-28T19:40:39.119Z,26.42
2023-06-28T19:43:05.680Z,26.35
2023-06-28T19:45:32.267Z,26.53
2023-06-28T19:47:58.888Z,26.43
2023-06-28T19:50:26.087Z,26.54
2023-06-28T19:52:52.971Z,26.36
2023-06-28T19:55:19.842Z,26.59
2023-06-28T19:57:46.613Z,26.48
2023-06-28T20:00:14.873Z,26.63
2023-06-28T20:02:42.721Z,26.51
2023-06-28T20:05:09.726Z,26.40
2023-06-28T20:07:37.174Z,26.21
2023-06-28T20:10:04.172Z,26.03
2023-06-28T20:12:30.727Z,26.18
2023-06-28T20:14:57.339Z,26.24
2023-06-28T20:17:23.985Z,26.03
2023-06-28T20:19:50.565Z,25.98
2023-06-28T20:22:17.254Z,25.84
2023-06-28T20:24:43.853Z,26.02
2023-06-28T20:27:10.678Z,25.86
2023-06-28T20:29:37.357Z,25.95
2023-06-28T20:32:04.419Z,25.57
2023-06-28T20:34:31.261Z,25.69
2023-06-28T20:36:57.897Z,25.85
2023-06-28T20:39:24.534Z,25.92
2023-06-28T20:41:51.460Z,25.73
2023-06-28T20:44:18.207Z,25.86
2023-06-28T20:46:44.987Z,25.39
2023-06-28T20:49:12.596Z,25.55
2023-06-28T20:51:39.266Z,25.29
2023-06-28T20:54:05.899Z,25.60
2023-06-28T20:56:32.597Z,25.67
2023-06-28T20:58:59.291Z,25.31
2023-06-28T21:01:27.672Z,25.40
2023-06-28T21:03:55.329Z,25.27
2023-06-28T21:06:22.112Z,25.22
2023-06-28T21:08:48.855Z,25.03
2023-06-28T21:11:16.632Z,25.02
2023-06-28T21:13:43.521Z,24.99
2023-06-28T21:16:10.226Z,24.94
2023-06-28T21:18:37.101Z,24.98
2023-06-28T21:21:03.791Z,24.86
2023-06-28T21:23:30.823Z,25.19
2023-06-28T21:25:57.464Z,25.33
2023-06-28T21:28:24.102Z,25.11
2023-06-28T21:30:50.666Z,25.15
2023-06-28T21:33:17.274Z,25.25
2023-06-28T21:35:44.184Z,25.24
2023-06-28T21:38:11.008Z,25.14
2023-06-28T21:40:37.864Z,25.02
2023-06-28T21:43:04.596Z,24.93
2023-06-28T21:45:31.240Z,25.06
2023-06-28T21:47:58.112Z,25.12
2023-06-28T21:50:24.834Z,25.16
2023-06-28T21:52:51.412Z,25.17
2023-06-28T21:55:18.006Z,25.26
2023-06-28T21:57:44.561Z,25.29
2023-06-28T22:00:22.766Z,25.12
2023-06-28T22:02:52.919Z,24.93
2023-06-28T22:05:19.854Z,24.96
2023-06-28T22:07:46.501Z,25.07
2023-06-28T22:10:13.232Z,25.12
2023-06-28T22:12:40.389Z,25.08
2023-06-28T22:15:07.605Z,25.17
2023-06-28T22:17:35.887Z,25.16
2023-06-28T22:20:05.114Z,25.04
2023-06-28T22:22:32.327Z,24.85
2023-06-28T22:24:59.071Z,24.82
2023-06-28T22:27:25.843Z,25.02
2023-06-28T22:29:53.304Z,24.93
2023-06-28T22:32:20.036Z,25.07
2023-06-28T22:34:47.137Z,24.68
2023-06-28T22:37:13.770Z,24.87
2023-06-28T22:39:40.656Z,24.58
2023-06-28T22:42:09.311Z,24.85
2023-06-28T22:44:37.210Z,24.49
2023-06-28T22:47:04.752Z,24.72
2023-06-28T22:49:33.050Z,24.56
2023-06-28T22:52:00.404Z,24.69
2023-06-28T22:54:27.970Z,24.75
2023-06-28T22:56:55.729Z,24.85
2023-06-28T22:59:22.790Z,24.81
2023-06-28T23:01:49.495Z,24.70
2023-06-28T23:04:16.129Z,24.61
2023-06-28T23:06:42.957Z,24.67
2023-06-28T23:09:10.285Z,24.59
2023-06-28T23:11:36.957Z,24.52
2023-06-28T23:14:04.104Z,24.41
2023-06-28T23:16:33.653Z,24.41
2023-06-28T23:19:02.829Z,24.37
2023-06-28T23:21:34.647Z,24.51
2023-06-28T23:24:03.707Z,24.36
2023-06-28T23:26:31.137Z,24.13
2023-06-28T23:28:58.293Z,24.08
2023-06-28T23:31:25.330Z,23.85
2023-06-28T23:33:52.829Z,24.07
2023-06-28T23:36:19.572Z,23.95
2023-06-28T23:38:46.294Z,24.19
2023-06-28T23:41:13.923Z,24.40
2023-06-28T23:43:41.059Z,24.33
2023-06-28T23:46:10.117Z,24.46
2023-06-28T23:48:36.795Z,24.17
2023-06-28T23:51:06.359Z,23.64
2023-06-28T23:53:42.862Z,24.13
2023-06-28T23:56:10.526Z,23.88
2023-06-28T23:58:38.628Z,24.23
